Eponyma — C6DN4 — position and weather

sailwx.info

Track history (hours):
 
Tides and Currents Weather Stations Pressure Air Temp Water Temp Dewpoint Dewpoint Depression Visibility Wind Speed Wind Dir Waves Ship Positions

Eponyma

Last reported at 2018-Apr-20 16:30 UTC. Time now 2018-Apr-20 16:30 UTC.
Position N 35°28' E 139°42'.

Length 142 m; draft 7.5 m.

Type: Cargo ship. MMSI: 311000725.

Date/timePositionNaut miles runAvg speedWind from/ knotsBaromVisibWave heightAir tempDewpointWater temp
2018-Apr-20 16:30N 35°28' E 139°42'0 0.0
2018-Apr-20 16:01N 35°28' E 139°42'0 0.0
2018-Apr-20 15:30N 35°28' E 139°42'0 0.0
2018-Apr-20 15:00N 35°28' E 139°42'0 0.0
2018-Apr-20 14:30N 35°28' E 139°42'0 0.0
2018-Apr-20 14:00N 35°28' E 139°42'0 0.0
2018-Apr-20 13:30N 35°28' E 139°42'0 0.0
2018-Apr-20 13:00N 35°28' E 139°42'0 0.0
2018-Apr-20 12:30N 35°28' E 139°42'0 0.0
2018-Apr-20 12:00N 35°28' E 139°42'0 0.0
2018-Apr-20 11:30N 35°28' E 139°42'0 0.0
2018-Apr-20 11:00N 35°28' E 139°42'0 0.0
2018-Apr-20 10:30N 35°28' E 139°42'1 1.2
2018-Apr-20 10:00N 35°28' E 139°43'2 4.3
2018-Apr-20 09:30N 35°27' E 139°45'3 5.3
2018-Apr-20 09:00N 35°28' E 139°48'3 6.8
2018-Apr-20 08:30N 35°30' E 139°51'4 8.9
2018-Apr-20 08:00N 35°34' E 139°49'3 4.1
2018-Apr-20 07:10N 35°37' E 139°46'0 0.0
2018-Apr-20 06:46N 35°37' E 139°46'0 0.0
2018-Apr-20 06:28N 35°37' E 139°46'0 0.0
2018-Apr-20 05:52N 35°37' E 139°46'0 0.0
2018-Apr-20 05:28N 35°37' E 139°46'0 0.0
2018-Apr-20 04:16N 35°37' E 139°46'0 0.0
2018-Apr-20 03:58N 35°37' E 139°46'0 0.0
2018-Apr-20 03:04N 35°37' E 139°46'0 0.0
2018-Apr-20 02:55N 35°37' E 139°46'0 0.0
2018-Apr-20 02:28N 35°37' E 139°46'0 0.0
2018-Apr-20 01:58N 35°37' E 139°46'0 0.1
2018-Apr-20 01:28N 35°37' E 139°46'0 0.0
2018-Apr-20 00:58N 35°37' E 139°46'0 0.0
2018-Apr-20 00:28N 35°37' E 139°46'0 0.0
2018-Apr-19 23:03N 35°37' E 139°46'0 0.1
2018-Apr-19 23:00N 35°37' E 139°46'1 2.0
2018-Apr-19 22:30N 35°36' E 139°47'4 8.9
2018-Apr-19 22:00N 35°33' E 139°51'4 7.0
2018-Apr-19 21:30N 35°30' E 139°49'3 5.9
2018-Apr-19 20:59N 35°29' E 139°45'0 0.1
2018-Apr-19 20:29N 35°29' E 139°45'0 0.0
2018-Apr-19 19:56N 35°29' E 139°45'0 0.1
2018-Apr-19 19:29N 35°29' E 139°45'0 0.0
2018-Apr-19 18:59N 35°29' E 139°45'0 0.0
2018-Apr-19 18:29N 35°29' E 139°45'0 0.1
2018-Apr-19 17:59N 35°29' E 139°45'0 0.0
2018-Apr-19 17:29N 35°29' E 139°45'0 0.1
2018-Apr-19 16:59N 35°29' E 139°45'0 0.1
2018-Apr-19 16:29N 35°29' E 139°45'0 0.1
2018-Apr-19 15:59N 35°29' E 139°45'0 0.1
2018-Apr-19 15:29N 35°29' E 139°45'0 0.0
2018-Apr-19 14:59N 35°29' E 139°45'0 0.0
2018-Apr-19 14:29N 35°29' E 139°45'0 0.1
2018-Apr-19 13:59N 35°29' E 139°45'0 0.1
2018-Apr-19 13:29N 35°29' E 139°45'0 0.1
2018-Apr-19 12:59N 35°29' E 139°45'0 0.0
2018-Apr-19 12:29N 35°29' E 139°45'0 0.1
2018-Apr-19 11:55N 35°29' E 139°45'0 0.0
2018-Apr-19 11:29N 35°29' E 139°45'0 0.0
2018-Apr-19 10:59N 35°29' E 139°45'0 0.0
2018-Apr-19 10:29N 35°29' E 139°45'0 0.1
2018-Apr-19 09:58N 35°29' E 139°45'0 0.6
2018-Apr-19 09:30N 35°29' E 139°45'2 3.8
2018-Apr-19 09:00N 35°27' E 139°46'2 3.3
2018-Apr-19 08:30N 35°26' E 139°48'5 9.5
2018-Apr-19 08:00N 35°22' E 139°45'510.9
2018-Apr-19 07:30N 35°16' E 139°46'612.7
2018-Apr-19 07:00N 35°10' E 139°46'816.3
2018-Apr-19 06:30N 35°03' E 139°41'917.5
2018-Apr-19 06:00N 34°57' E 139°33'1019.0
2018-Apr-19 05:30N 34°52' E 139°24'1019.1
2018-Apr-19 04:58N 34°44' E 139°15'918.7
2018-Apr-19 04:30N 34°39' E 139°07'918.6
2018-Apr-19 04:00N 34°33' E 138°59'918.2
2018-Apr-19 03:31N 34°28' E 138°49'918.0
2018-Apr-19 03:00N 34°24' E 138°39'917.8
2018-Apr-19 02:30N 34°20' E 138°29'1017.5
2018-Apr-19 01:57N 34°16' E 138°19'1017.2
2018-Apr-19 01:23N 34°12' E 138°09'1616.7
2018-Apr-19 00:25N 34°04' E 137°51'78916.2
2018-Apr-16 23:47N 31°06' E 122°40'615.2
2018-Apr-16 23:23N 31°06' E 122°33'512.1
2018-Apr-16 22:58N 31°06' E 122°27'510.5
2018-Apr-16 22:29N 31°06' E 122°21'713.6
2018-Apr-16 22:00N 31°09' E 122°14'914.8
2018-Apr-16 21:25N 31°14' E 122°05'915.2
2018-Apr-16 20:50N 31°15' E 121°55'514.5
2018-Apr-16 20:30N 31°17' E 121°50'4 0.3
2018-Apr-16 07:19N 31°18' E 121°45'510.1
2018-Apr-16 06:47N 31°16' E 121°51'312.4
2018-Apr-16 06:30N 31°16' E 121°55'44 3.3
2018-Apr-15 17:19N 30°59' E 122°43'0 0.0
2018-Apr-15 16:49N 30°59' E 122°43'  
2018-Apr-12 21:18N 30°59' E 122°43'6 6.9
2018-Apr-12 20:29N 30°56' E 122°48'1122.8
2018-Apr-12 20:01N 30°50' E 122°59'9 9.8
2018-Apr-12 19:07N 30°42' E 123°03'214.4
2018-Apr-12 19:00N 30°41' E 123°03'41015.5
2018-Apr-11 16:29N 24°44' E 119°14'817.8
2018-Apr-11 16:00N 24°38' E 119°07'1017.7
2018-Apr-11 15:26N 24°32' E 118°59'1517.4
2018-Apr-11 14:36N 24°23' E 118°46'217.3
2018-Apr-11 14:30N 24°21' E 118°45'916.9
2018-Apr-11 14:00N 24°15' E 118°39'816.9
2018-Apr-11 13:30N 24°10' E 118°32'917.1
2018-Apr-11 13:00N 24°04' E 118°24'917.3
2018-Apr-11 12:29N 23°58' E 118°17'917.5
2018-Apr-11 12:00N 23°53' E 118°10'917.7
2018-Apr-11 11:28N 23°46' E 118°03'817.8
2018-Apr-11 11:00N 23°41' E 117°56'918.1
2018-Apr-11 10:30N 23°35' E 117°48'917.8
2018-Apr-11 09:59N 23°29' E 117°41'918.2
2018-Apr-11 09:30N 23°24' E 117°33'918.2
2018-Apr-11 09:00N 23°17' E 117°26'917.8
2018-Apr-11 08:29N 23°12' E 117°18'1117.3
2018-Apr-11 07:52N 23°07' E 117°08'717.0
2018-Apr-11 07:26N 23°03' E 117°01'817.1
2018-Apr-11 06:57N 22°59' E 116°53'  
Track history (hours):
 
Tides and Currents Weather Stations Pressure Air Temp Water Temp Dewpoint Dewpoint Depression Visibility Wind Speed Wind Dir Waves Ship Positions

Eponyma

Last reported at 2018-Apr-20 16:30 UTC. Time now 2018-Apr-20 16:30 UTC.
Position N 35°28' E 139°42'.

Length 142 m; draft 7.5 m.

Type: Cargo ship. MMSI: 311000725.

Date/timePositionNaut miles runAvg speedWind from/ knotsBaromVisibWave heightAir tempDewpointWater temp
2018-Apr-20 16:30N 35°28' E 139°42'0 0.0
2018-Apr-20 16:01N 35°28' E 139°42'0 0.0
2018-Apr-20 15:30N 35°28' E 139°42'0 0.0
2018-Apr-20 15:00N 35°28' E 139°42'0 0.0
2018-Apr-20 14:30N 35°28' E 139°42'0 0.0
2018-Apr-20 14:00N 35°28' E 139°42'0 0.0
2018-Apr-20 13:30N 35°28' E 139°42'0 0.0
2018-Apr-20 13:00N 35°28' E 139°42'0 0.0
2018-Apr-20 12:30N 35°28' E 139°42'0 0.0
2018-Apr-20 12:00N 35°28' E 139°42'0 0.0
2018-Apr-20 11:30N 35°28' E 139°42'0 0.0
2018-Apr-20 11:00N 35°28' E 139°42'0 0.0
2018-Apr-20 10:30N 35°28' E 139°42'1 1.2
2018-Apr-20 10:00N 35°28' E 139°43'2 4.3
2018-Apr-20 09:30N 35°27' E 139°45'3 5.3
2018-Apr-20 09:00N 35°28' E 139°48'3 6.8
2018-Apr-20 08:30N 35°30' E 139°51'4 8.9
2018-Apr-20 08:00N 35°34' E 139°49'3 4.1
2018-Apr-20 07:10N 35°37' E 139°46'0 0.0
2018-Apr-20 06:46N 35°37' E 139°46'0 0.0
2018-Apr-20 06:28N 35°37' E 139°46'0 0.0
2018-Apr-20 05:52N 35°37' E 139°46'0 0.0
2018-Apr-20 05:28N 35°37' E 139°46'0 0.0
2018-Apr-20 04:16N 35°37' E 139°46'0 0.0
2018-Apr-20 03:58N 35°37' E 139°46'0 0.0
2018-Apr-20 03:04N 35°37' E 139°46'0 0.0
2018-Apr-20 02:55N 35°37' E 139°46'0 0.0
2018-Apr-20 02:28N 35°37' E 139°46'0 0.0
2018-Apr-20 01:58N 35°37' E 139°46'0 0.1
2018-Apr-20 01:28N 35°37' E 139°46'0 0.0
2018-Apr-20 00:58N 35°37' E 139°46'0 0.0
2018-Apr-20 00:28N 35°37' E 139°46'0 0.0
2018-Apr-19 23:03N 35°37' E 139°46'0 0.1
2018-Apr-19 23:00N 35°37' E 139°46'1 2.0
2018-Apr-19 22:30N 35°36' E 139°47'4 8.9
2018-Apr-19 22:00N 35°33' E 139°51'4 7.0
2018-Apr-19 21:30N 35°30' E 139°49'3 5.9
2018-Apr-19 20:59N 35°29' E 139°45'0 0.1
2018-Apr-19 20:29N 35°29' E 139°45'0 0.0
2018-Apr-19 19:56N 35°29' E 139°45'0 0.1
2018-Apr-19 19:29N 35°29' E 139°45'0 0.0
2018-Apr-19 18:59N 35°29' E 139°45'0 0.0
2018-Apr-19 18:29N 35°29' E 139°45'0 0.1
2018-Apr-19 17:59N 35°29' E 139°45'0 0.0
2018-Apr-19 17:29N 35°29' E 139°45'0 0.1
2018-Apr-19 16:59N 35°29' E 139°45'0 0.1
2018-Apr-19 16:29N 35°29' E 139°45'0 0.1
2018-Apr-19 15:59N 35°29' E 139°45'0 0.1
2018-Apr-19 15:29N 35°29' E 139°45'0 0.0
2018-Apr-19 14:59N 35°29' E 139°45'0 0.0
2018-Apr-19 14:29N 35°29' E 139°45'0 0.1
2018-Apr-19 13:59N 35°29' E 139°45'0 0.1
2018-Apr-19 13:29N 35°29' E 139°45'0 0.1
2018-Apr-19 12:59N 35°29' E 139°45'0 0.0
2018-Apr-19 12:29N 35°29' E 139°45'0 0.1
2018-Apr-19 11:55N 35°29' E 139°45'0 0.0
2018-Apr-19 11:29N 35°29' E 139°45'0 0.0
2018-Apr-19 10:59N 35°29' E 139°45'0 0.0
2018-Apr-19 10:29N 35°29' E 139°45'0 0.1
2018-Apr-19 09:58N 35°29' E 139°45'0 0.6
2018-Apr-19 09:30N 35°29' E 139°45'2 3.8
2018-Apr-19 09:00N 35°27' E 139°46'2 3.3
2018-Apr-19 08:30N 35°26' E 139°48'5 9.5
2018-Apr-19 08:00N 35°22' E 139°45'510.9
2018-Apr-19 07:30N 35°16' E 139°46'612.7
2018-Apr-19 07:00N 35°10' E 139°46'816.3
2018-Apr-19 06:30N 35°03' E 139°41'917.5
2018-Apr-19 06:00N 34°57' E 139°33'1019.0
2018-Apr-19 05:30N 34°52' E 139°24'1019.1
2018-Apr-19 04:58N 34°44' E 139°15'918.7
2018-Apr-19 04:30N 34°39' E 139°07'918.6
2018-Apr-19 04:00N 34°33' E 138°59'918.2
2018-Apr-19 03:31N 34°28' E 138°49'918.0
2018-Apr-19 03:00N 34°24' E 138°39'917.8
2018-Apr-19 02:30N 34°20' E 138°29'1017.5
2018-Apr-19 01:57N 34°16' E 138°19'1017.2
2018-Apr-19 01:23N 34°12' E 138°09'1616.7
2018-Apr-19 00:25N 34°04' E 137°51'78916.2
2018-Apr-16 23:47N 31°06' E 122°40'615.2
2018-Apr-16 23:23N 31°06' E 122°33'512.1
2018-Apr-16 22:58N 31°06' E 122°27'510.5
2018-Apr-16 22:29N 31°06' E 122°21'713.6
2018-Apr-16 22:00N 31°09' E 122°14'914.8
2018-Apr-16 21:25N 31°14' E 122°05'915.2
2018-Apr-16 20:50N 31°15' E 121°55'514.5
2018-Apr-16 20:30N 31°17' E 121°50'4 0.3
2018-Apr-16 07:19N 31°18' E 121°45'510.1
2018-Apr-16 06:47N 31°16' E 121°51'312.4
2018-Apr-16 06:30N 31°16' E 121°55'44 3.3
2018-Apr-15 17:19N 30°59' E 122°43'0 0.0
2018-Apr-15 16:49N 30°59' E 122°43'  
2018-Apr-12 21:18N 30°59' E 122°43'6 6.9
2018-Apr-12 20:29N 30°56' E 122°48'1122.8
2018-Apr-12 20:01N 30°50' E 122°59'9 9.8
2018-Apr-12 19:07N 30°42' E 123°03'214.4
2018-Apr-12 19:00N 30°41' E 123°03'41015.5
2018-Apr-11 16:29N 24°44' E 119°14'817.8
2018-Apr-11 16:00N 24°38' E 119°07'1017.7
2018-Apr-11 15:26N 24°32' E 118°59'1517.4
2018-Apr-11 14:36N 24°23' E 118°46'217.3
2018-Apr-11 14:30N 24°21' E 118°45'916.9
2018-Apr-11 14:00N 24°15' E 118°39'816.9
2018-Apr-11 13:30N 24°10' E 118°32'917.1
2018-Apr-11 13:00N 24°04' E 118°24'917.3
2018-Apr-11 12:29N 23°58' E 118°17'917.5
2018-Apr-11 12:00N 23°53' E 118°10'917.7
2018-Apr-11 11:28N 23°46' E 118°03'817.8
2018-Apr-11 11:00N 23°41' E 117°56'918.1
2018-Apr-11 10:30N 23°35' E 117°48'917.8
2018-Apr-11 09:59N 23°29' E 117°41'918.2
2018-Apr-11 09:30N 23°24' E 117°33'918.2
2018-Apr-11 09:00N 23°17' E 117°26'917.8
2018-Apr-11 08:29N 23°12' E 117°18'1117.3
2018-Apr-11 07:52N 23°07' E 117°08'717.0
2018-Apr-11 07:26N 23°03' E 117°01'817.1
2018-Apr-11 06:57N 22°59' E 116°53'  

Dump ship's entire track history